Time;durP1;ratioP1;P1;durP2;ratioP2;P2;SDS_P1;SDS_P2;PMS_P1;PMS_P2;Temp;Humidity;BMP_temperature;BMP_pressure;BME280_temperature;BME280_humidity;BME280_pressure;Samples;Min_cycle;Max_cycle;Signal;HPM_P1;HPM_P2
2021/12/13 00:00:43;;;;;;;;;;;10.70;99.90;;;;;;5001204;28;20386;-81
2021/12/13 00:03:13;;;;;;;;;;;10.80;99.90;;;;;;5017310;28;19944;-80
2021/12/13 00:05:42;;;;;;;;;;;10.80;99.90;;;;;;5017028;28;19921;-80
2021/12/13 00:08:08;;;;;;;;;;;10.80;99.90;;;;;;4984738;28;19990;-82
2021/12/13 00:10:39;;;;;;;;;;;10.80;99.90;;;;;;5017232;28;19925;-81
2021/12/13 00:13:07;;;;;;;;;;;10.80;99.90;;;;;;5017182;28;19929;-81
2021/12/13 00:15:34;;;;;;;;;;;10.80;99.90;;;;;;4984473;28;20012;-81
2021/12/13 00:18:02;;;;;;;;;;;10.80;99.90;;;;;;5000977;28;20370;-82
2021/12/13 00:20:36;;;;;;;;;;;10.80;99.90;;;;;;5017165;28;20406;-81
2021/12/13 00:23:09;;;;;;;;;;;10.80;99.90;;;;;;5017064;28;19921;-81
2021/12/13 00:25:38;;;;;;;;;;;10.80;99.90;;;;;;5000654;28;19929;-81
2021/12/13 00:28:05;;;;;;;;;;;10.80;99.90;;;;;;5014774;28;19925;-79
2021/12/13 00:30:33;;;;;;;;;;;10.80;99.90;;;;;;5032099;28;19921;-80
2021/12/13 00:33:05;;;;;;;;;;;10.80;99.90;;;;;;5020431;28;20004;-81
2021/12/13 00:35:34;;;;;;;;;;;10.80;99.90;;;;;;5019606;28;20004;-81
2021/12/13 00:38:01;;;;;;;;;;;10.80;99.90;;;;;;5020534;28;19921;-81
2021/12/13 00:40:30;;;;;;;;;;;10.80;99.90;;;;;;5053659;28;20400;-80
2021/12/13 00:43:00;;;;;;;;;;;10.80;99.90;;;;;;5020012;28;19921;-81
2021/12/13 00:45:27;;;;;;;;;;;10.80;99.90;;;;;;5019905;28;19975;-81
2021/12/13 00:47:53;;;;;;;;;;;10.80;99.90;;;;;;5020318;28;19921;-81
2021/12/13 00:50:22;;;;;;;;;;;10.80;99.90;;;;;;5037064;28;19935;-82
2021/12/13 00:52:48;;;;;;;;;;;10.80;99.90;;;;;;5036869;28;19925;-80
2021/12/13 00:55:15;;;;;;;;;;;10.80;99.90;;;;;;5036557;28;20399;-81
2021/12/13 00:57:42;;;;;;;;;;;10.80;99.90;;;;;;5053772;28;19991;-82
2021/12/13 01:00:13;;;;;;;;;;;10.80;99.90;;;;;;5019602;28;19921;-80
2021/12/13 01:02:41;;;;;;;;;;;10.80;99.90;;;;;;5020767;28;20345;-81
2021/12/13 01:05:08;;;;;;;;;;;10.80;99.90;;;;;;5020280;28;19921;-80
2021/12/13 01:07:46;;;;;;;;;;;10.80;99.90;;;;;;5019885;28;19924;-81
2021/12/13 01:10:41;;;;;;;;;;;10.80;99.90;;;;;;5035960;28;19921;-81
2021/12/13 01:13:10;;;;;;;;;;;10.80;99.90;;;;;;5036291;28;19929;-81
2021/12/13 01:15:43;;;;;;;;;;;10.80;99.90;;;;;;5019439;28;19920;-82
2021/12/13 01:18:27;;;;;;;;;;;10.80;99.90;;;;;;5019611;28;20357;-82
2021/12/13 01:21:08;;;;;;;;;;;10.80;99.90;;;;;;5035909;28;19920;-82
2021/12/13 01:23:43;;;;;;;;;;;10.80;99.90;;;;;;5019713;28;19921;-82
2021/12/13 01:26:27;;;;;;;;;;;10.80;99.90;;;;;;5036159;28;19947;-82
2021/12/13 01:28:54;;;;;;;;;;;10.80;99.90;;;;;;5027919;28;19951;-81
2021/12/13 01:31:26;;;;;;;;;;;10.80;99.90;;;;;;5019161;28;19947;-82
2021/12/13 01:33:54;;;;;;;;;;;10.80;99.90;;;;;;5019469;28;19925;-82
2021/12/13 01:36:23;;;;;;;;;;;10.80;99.90;;;;;;5019327;28;19972;-81
2021/12/13 01:38:50;;;;;;;;;;;10.80;99.90;;;;;;5018838;28;20370;-82
2021/12/13 01:41:17;;;;;;;;;;;10.80;99.90;;;;;;5035076;28;19927;-81
2021/12/13 01:43:44;;;;;;;;;;;10.80;99.90;;;;;;5019115;28;19928;-82
2021/12/13 01:46:10;;;;;;;;;;;10.80;99.90;;;;;;5035306;28;19984;-82
2021/12/13 01:48:38;;;;;;;;;;;10.80;99.90;;;;;;5018517;28;19960;-82
2021/12/13 01:51:08;;;;;;;;;;;10.80;99.90;;;;;;5034817;28;20024;-81
2021/12/13 01:53:36;;;;;;;;;;;10.80;99.90;;;;;;5051787;28;19921;-81
2021/12/13 01:56:10;;;;;;;;;;;10.80;99.90;;;;;;5018303;28;19928;-81
2021/12/13 01:58:41;;;;;;;;;;;10.80;99.90;;;;;;5002194;28;19921;-81
2021/12/13 02:01:11;;;;;;;;;;;10.80;99.90;;;;;;5018423;28;20390;-83
2021/12/13 02:03:43;;;;;;;;;;;10.80;99.90;;;;;;5002140;28;19964;-83
2021/12/13 02:06:09;;;;;;;;;;;10.80;99.90;;;;;;5110339;22;19924;-79
2021/12/13 02:08:35;;;;;;;;;;;10.80;99.90;;;;;;5112573;28;19920;-80
2021/12/13 02:11:01;;;;;;;;;;;10.80;99.90;;;;;;5079460;28;20348;-79
2021/12/13 02:13:28;;;;;;;;;;;10.80;99.90;;;;;;5113158;28;19941;-80
2021/12/13 02:18:44;;;;;;;;;;;10.80;99.90;;;;;;5096414;28;19973;-80
2021/12/13 02:21:17;;;;;;;;;;;10.80;99.90;;;;;;5096541;28;19967;-79
2021/12/13 02:23:46;;;;;;;;;;;10.80;99.90;;;;;;5097101;28;20456;-79
2021/12/13 02:26:12;;;;;;;;;;;10.80;99.90;;;;;;5113104;28;20463;-80
2021/12/13 02:28:39;;;;;;;;;;;10.80;99.90;;;;;;5113167;28;19989;-80
2021/12/13 02:31:06;;;;;;;;;;;10.80;99.90;;;;;;5075394;28;20197;-80
2021/12/13 02:33:33;;;;;;;;;;;10.80;99.90;;;;;;5082331;28;20003;-79
2021/12/13 02:36:00;;;;;;;;;;;10.80;99.90;;;;;;5076331;28;19924;-80
2021/12/13 02:38:27;;;;;;;;;;;10.80;99.90;;;;;;5076488;28;19967;-79
2021/12/13 02:40:54;;;;;;;;;;;10.80;99.90;;;;;;5059815;28;19969;-80
2021/12/13 02:43:21;;;;;;;;;;;10.80;99.90;;;;;;5076571;28;19978;-80
2021/12/13 02:45:48;;;;;;;;;;;10.80;99.90;;;;;;5101656;28;19969;-79
2021/12/13 02:48:15;;;;;;;;;;;10.80;99.90;;;;;;5113748;28;19920;-80
2021/12/13 02:50:43;;;;;;;;;;;10.80;99.90;;;;;;5096473;28;20412;-79
2021/12/13 02:53:11;;;;;;;;;;;10.80;99.90;;;;;;5113550;28;19920;-80
2021/12/13 02:55:36;;;;;;;;;;;10.80;99.90;;;;;;5130348;28;20373;-80
2021/12/13 02:58:06;;;;;;;;;;;10.80;99.90;;;;;;5113272;28;19946;-79
2021/12/13 03:00:33;;;;;;;;;;;10.80;99.90;;;;;;5113487;28;20046;-79
2021/12/13 03:03:00;;;;;;;;;;;10.80;99.90;;;;;;5113509;28;19919;-78
2021/12/13 03:05:29;;;;;;;;;;;10.80;99.90;;;;;;5113428;28;20396;-79
2021/12/13 03:07:57;;;;;;;;;;;10.80;99.90;;;;;;5100468;28;20357;-79
2021/12/13 03:10:25;;;;;;;;;;;10.80;99.90;;;;;;5100274;28;20002;-79
2021/12/13 03:12:51;;;;;;;;;;;10.80;99.90;;;;;;5100779;28;20312;-79
2021/12/13 03:15:20;;;;;;;;;;;10.70;99.90;;;;;;5083407;28;20002;-79
2021/12/13 03:17:48;;;;;;;;;;;10.80;99.90;;;;;;5100353;28;19978;-79
2021/12/13 03:20:24;;;;;;;;;;;10.70;99.90;;;;;;5084072;28;20493;-80
2021/12/13 03:23:13;;;;;;;;;;;10.70;99.90;;;;;;5117119;28;19926;-79
2021/12/13 03:25:52;;;;;;;;;;;10.70;99.90;;;;;;5086611;28;20026;-79
2021/12/13 03:28:32;;;;;;;;;;;10.70;99.90;;;;;;5083420;28;19920;-79
2021/12/13 03:31:02;;;;;;;;;;;10.70;99.90;;;;;;5076785;28;19974;-79
2021/12/13 03:33:31;;;;;;;;;;;10.70;99.90;;;;;;5104573;28;19924;-79
2021/12/13 03:35:58;;;;;;;;;;;10.60;99.90;;;;;;5062560;28;19920;-81
2021/12/13 03:38:26;;;;;;;;;;;10.60;99.90;;;;;;5062859;28;20408;-79
2021/12/13 03:40:52;;;;;;;;;;;10.60;99.90;;;;;;5063331;28;19924;-80
2021/12/13 03:43:24;;;;;;;;;;;10.60;99.90;;;;;;5079747;28;19927;-79
2021/12/13 03:45:52;;;;;;;;;;;10.60;99.90;;;;;;5104772;28;20338;-80
2021/12/13 03:48:20;;;;;;;;;;;10.60;99.90;;;;;;5116660;28;19927;-80
2021/12/13 03:50:48;;;;;;;;;;;10.50;99.90;;;;;;5099951;28;19924;-79
2021/12/13 03:53:14;;;;;;;;;;;10.50;99.90;;;;;;5116309;28;19927;-79
2021/12/13 03:55:41;;;;;;;;;;;10.50;99.90;;;;;;5116790;28;20026;-79
2021/12/13 03:58:08;;;;;;;;;;;10.50;99.90;;;;;;5099173;28;19919;-79
2021/12/13 04:00:35;;;;;;;;;;;10.40;99.90;;;;;;5116225;28;19920;-80
2021/12/13 04:03:04;;;;;;;;;;;10.40;99.90;;;;;;5100278;28;20289;-79
2021/12/13 04:05:31;;;;;;;;;;;10.30;99.90;;;;;;5116366;28;20255;-79
2021/12/13 04:07:58;;;;;;;;;;;10.30;99.90;;;;;;5099433;28;19924;-79
2021/12/13 04:10:25;;;;;;;;;;;10.30;99.90;;;;;;5116580;28;20385;-79
2021/12/13 04:12:53;;;;;;;;;;;10.30;99.90;;;;;;5116320;28;20373;-79
2021/12/13 04:15:28;;;;;;;;;;;10.20;99.90;;;;;;5116060;28;19924;-79
2021/12/13 04:18:28;;;;;;;;;;;10.20;99.90;;;;;;5081575;28;19920;-79
2021/12/13 04:20:43;;;;;;;;;;;10.20;99.90;;;;;;5114901;28;19923;-79
2021/12/13 04:23:11;;;;;;;;;;;10.20;99.90;;;;;;5098799;28;20309;-79
2021/12/13 04:25:38;;;;;;;;;;;10.20;99.90;;;;;;5082114;28;19920;-79
2021/12/13 04:28:06;;;;;;;;;;;10.20;99.90;;;;;;5081717;28;19979;-79
2021/12/13 04:30:33;;;;;;;;;;;10.20;99.90;;;;;;5098689;28;19924;-79
2021/12/13 04:33:02;;;;;;;;;;;10.10;99.90;;;;;;5098556;28;19966;-79
2021/12/13 04:35:28;;;;;;;;;;;10.10;99.90;;;;;;5095388;28;20024;-79
2021/12/13 04:37:57;;;;;;;;;;;10.10;99.90;;;;;;5095197;28;19928;-79
2021/12/13 04:40:24;;;;;;;;;;;10.10;99.90;;;;;;5111973;28;20401;-79
2021/12/13 04:42:50;;;;;;;;;;;10.10;99.90;;;;;;5112242;28;19921;-78
2021/12/13 04:45:17;;;;;;;;;;;10.00;99.90;;;;;;5098360;28;19967;-79
2021/12/13 04:47:47;;;;;;;;;;;10.00;99.90;;;;;;5115622;28;19923;-79
2021/12/13 04:50:14;;;;;;;;;;;10.00;99.90;;;;;;5082087;28;20407;-79
2021/12/13 04:52:40;;;;;;;;;;;9.90;99.90;;;;;;5098589;28;19978;-79
2021/12/13 04:55:09;;;;;;;;;;;9.90;99.90;;;;;;5115014;28;19924;-79
2021/12/13 04:57:34;;;;;;;;;;;9.90;99.90;;;;;;5098125;28;20336;-79
2021/12/13 05:00:02;;;;;;;;;;;9.90;99.90;;;;;;5097892;28;19920;-79
2021/12/13 05:02:28;;;;;;;;;;;9.90;99.90;;;;;;5097645;28;19920;-79
2021/12/13 05:04:54;;;;;;;;;;;9.90;99.90;;;;;;5098054;28;20015;-79
2021/12/13 05:07:20;;;;;;;;;;;9.90;99.90;;;;;;5114967;28;19920;-79
2021/12/13 05:09:46;;;;;;;;;;;9.90;99.90;;;;;;5097852;28;19920;-79
2021/12/13 05:12:15;;;;;;;;;;;9.90;99.90;;;;;;5097613;28;20336;-79
2021/12/13 05:14:42;;;;;;;;;;;9.90;99.90;;;;;;5097609;28;20023;-79
2021/12/13 05:17:10;;;;;;;;;;;9.90;99.90;;;;;;5097383;28;19969;-79
2021/12/13 05:19:37;;;;;;;;;;;10.00;99.90;;;;;;5080207;28;19920;-79
2021/12/13 05:22:04;;;;;;;;;;;9.90;99.90;;;;;;5114394;28;19926;-78
2021/12/13 05:24:31;;;;;;;;;;;9.90;99.90;;;;;;5080449;28;19931;-79
2021/12/13 05:26:58;;;;;;;;;;;9.90;99.90;;;;;;5080802;28;19919;-79
2021/12/13 05:29:27;;;;;;;;;;;9.90;99.90;;;;;;5096424;28;19919;-79
2021/12/13 05:31:55;;;;;;;;;;;9.90;99.90;;;;;;5097342;28;20014;-79
2021/12/13 05:34:21;;;;;;;;;;;9.90;99.90;;;;;;5093535;28;19927;-79
2021/12/13 05:36:53;;;;;;;;;;;9.90;99.90;;;;;;5079840;28;19920;-79
2021/12/13 05:39:19;;;;;;;;;;;9.90;99.90;;;;;;5043483;28;19924;-79
2021/12/13 05:41:48;;;;;;;;;;;9.90;99.90;;;;;;5076482;28;19970;-79
2021/12/13 05:44:21;;;;;;;;;;;9.90;99.90;;;;;;5061727;28;19958;-79
2021/12/13 05:46:49;;;;;;;;;;;9.90;99.90;;;;;;5079930;28;19942;-79
2021/12/13 05:49:17;;;;;;;;;;;9.90;99.90;;;;;;5096845;28;20377;-79
2021/12/13 05:51:44;;;;;;;;;;;9.90;99.90;;;;;;5079827;28;20392;-79
2021/12/13 05:54:11;;;;;;;;;;;9.90;99.90;;;;;;5130784;27;20464;-79
2021/12/13 05:56:38;;;;;;;;;;;9.90;99.90;;;;;;5096507;28;20018;-79
2021/12/13 05:59:10;;;;;;;;;;;9.90;99.90;;;;;;5079523;28;19959;-79
2021/12/13 06:01:40;;;;;;;;;;;9.90;99.90;;;;;;5096439;28;19920;-78
2021/12/13 06:04:11;;;;;;;;;;;9.80;99.90;;;;;;5078515;28;20027;-79
2021/12/13 06:06:43;;;;;;;;;;;9.90;99.90;;;;;;5095759;28;19939;-79
2021/12/13 06:09:08;;;;;;;;;;;9.90;99.90;;;;;;5095510;28;19920;-79
2021/12/13 06:11:34;;;;;;;;;;;9.90;99.90;;;;;;5112584;28;19924;-78
2021/12/13 06:14:05;;;;;;;;;;;9.90;99.90;;;;;;5079009;28;20361;-78
2021/12/13 06:17:01;;;;;;;;;;;9.90;99.90;;;;;;5096044;28;20538;-79
2021/12/13 06:19:30;;;;;;;;;;;9.90;99.90;;;;;;5077655;28;19919;-79
2021/12/13 06:22:02;;;;;;;;;;;9.90;99.90;;;;;;5095400;28;19928;-79
2021/12/13 06:24:29;;;;;;;;;;;9.80;99.90;;;;;;5094823;28;19926;-79
2021/12/13 06:27:03;;;;;;;;;;;9.80;99.90;;;;;;5078348;28;19920;-79
2021/12/13 06:29:44;;;;;;;;;;;9.80;99.90;;;;;;5096201;28;19919;-79
2021/12/13 06:32:20;;;;;;;;;;;9.80;99.90;;;;;;5078326;27;19923;-79
2021/12/13 06:34:47;;;;;;;;;;;9.80;99.90;;;;;;5087766;27;19920;-78
2021/12/13 06:37:12;;;;;;;;;;;9.80;99.90;;;;;;5093921;28;19932;-79
2021/12/13 06:39:38;;;;;;;;;;;9.80;99.90;;;;;;5094359;28;19972;-79
2021/12/13 06:42:06;;;;;;;;;;;9.80;99.90;;;;;;5076132;28;19927;-78
2021/12/13 06:44:35;;;;;;;;;;;9.80;99.90;;;;;;5107522;28;19959;-78
2021/12/13 06:47:03;;;;;;;;;;;9.80;99.90;;;;;;5072468;28;19974;-78
2021/12/13 06:49:34;;;;;;;;;;;9.80;99.90;;;;;;5051659;28;19934;-78
2021/12/13 06:52:03;;;;;;;;;;;9.80;99.90;;;;;;5094944;28;19924;-78
2021/12/13 06:54:34;;;;;;;;;;;9.80;99.90;;;;;;5096661;28;20300;-78
2021/12/13 06:57:01;;;;;;;;;;;9.80;99.90;;;;;;5109277;28;19919;-78
2021/12/13 06:59:27;;;;;;;;;;;9.80;99.90;;;;;;5111359;28;19920;-78
2021/12/13 07:01:59;;;;;;;;;;;9.80;99.90;;;;;;5077426;28;20340;-79
2021/12/13 07:04:24;;;;;;;;;;;9.80;99.90;;;;;;5090258;28;20015;-78
2021/12/13 07:06:50;;;;;;;;;;;9.80;99.90;;;;;;5072571;28;20348;-77
2021/12/13 07:09:19;;;;;;;;;;;9.80;99.90;;;;;;5084538;28;19919;-78
2021/12/13 07:11:47;;;;;;;;;;;9.80;99.90;;;;;;5076879;28;20365;-79
2021/12/13 07:14:14;;;;;;;;;;;9.80;99.90;;;;;;5073933;28;19923;-78
2021/12/13 07:16:41;;;;;;;;;;;9.80;99.90;;;;;;5075309;28;19923;-79
2021/12/13 07:19:11;;;;;;;;;;;9.80;99.90;;;;;;5097651;28;19924;-79
2021/12/13 07:21:41;;;;;;;;;;;9.80;99.90;;;;;;5074086;28;19964;-80
2021/12/13 07:24:09;;;;;;;;;;;9.80;99.90;;;;;;5061955;28;20577;-79
2021/12/13 07:26:38;;;;;;;;;;;9.80;99.90;;;;;;5076426;28;20022;-79
2021/12/13 07:29:07;;;;;;;;;;;9.80;99.90;;;;;;5074110;28;19927;-79
2021/12/13 07:31:32;;;;;;;;;;;9.80;99.90;;;;;;5069536;28;21228;-79
2021/12/13 07:34:06;;;;;;;;;;;9.80;99.90;;;;;;5053997;28;19928;-78
2021/12/13 07:36:32;;;;;;;;;;;9.80;99.90;;;;;;5070232;28;20044;-78
2021/12/13 07:39:00;;;;;;;;;;;9.80;99.90;;;;;;5070156;28;19963;-78
2021/12/13 07:41:27;;;;;;;;;;;9.80;99.90;;;;;;5075851;28;19924;-78
2021/12/13 07:43:53;;;;;;;;;;;9.80;99.90;;;;;;5068262;28;20355;-78
2021/12/13 07:46:25;;;;;;;;;;;9.80;99.90;;;;;;5077191;28;19977;-78
2021/12/13 07:48:52;;;;;;;;;;;9.80;99.90;;;;;;5075082;28;20057;-78
2021/12/13 07:51:20;;;;;;;;;;;9.80;99.90;;;;;;5065178;28;19977;-78
2021/12/13 07:53:48;;;;;;;;;;;9.80;99.90;;;;;;5064333;27;20545;-78
2021/12/13 07:56:19;;;;;;;;;;;9.80;99.90;;;;;;5065954;27;19927;-78
2021/12/13 07:58:46;;;;;;;;;;;9.80;99.90;;;;;;5096384;28;19973;-78
2021/12/13 08:01:16;;;;;;;;;;;9.80;99.90;;;;;;5077073;27;19990;-79
2021/12/13 08:03:43;;;;;;;;;;;9.80;99.90;;;;;;5099202;27;19943;-79
2021/12/13 08:06:08;;;;;;;;;;;9.80;99.90;;;;;;5062539;27;19930;-78
2021/12/13 08:08:44;;;;;;;;;;;9.80;99.90;;;;;;5086445;27;20358;-79
2021/12/13 08:11:09;;;;;;;;;;;9.80;99.90;;;;;;5099947;27;20398;-79
2021/12/13 08:13:35;;;;;;;;;;;9.80;99.90;;;;;;5074124;28;19973;-78
2021/12/13 08:16:03;;;;;;;;;;;9.80;99.90;;;;;;5058161;27;19970;-78
2021/12/13 08:18:32;;;;;;;;;;;9.80;99.90;;;;;;5090147;28;20040;-78
2021/12/13 08:21:00;;;;;;;;;;;9.80;99.90;;;;;;5057309;28;20277;-78
2021/12/13 08:23:27;;;;;;;;;;;9.90;99.90;;;;;;5086703;28;20001;-78
2021/12/13 08:25:56;;;;;;;;;;;9.80;99.90;;;;;;5073232;28;19928;-78
2021/12/13 08:28:31;;;;;;;;;;;9.80;99.90;;;;;;5062125;28;19977;-78
2021/12/13 08:30:57;;;;;;;;;;;9.80;99.90;;;;;;5094036;27;19945;-79
2021/12/13 08:33:25;;;;;;;;;;;9.80;99.90;;;;;;5071857;27;20014;-77
2021/12/13 08:35:54;;;;;;;;;;;9.80;99.90;;;;;;5059950;27;19927;-78
2021/12/13 08:38:37;;;;;;;;;;;9.80;99.90;;;;;;5059925;27;19983;-78
2021/12/13 08:41:06;;;;;;;;;;;9.90;99.90;;;;;;5099544;27;19962;-78
2021/12/13 08:43:37;;;;;;;;;;;9.90;99.90;;;;;;5063046;27;19923;-77
2021/12/13 08:46:04;;;;;;;;;;;9.90;99.90;;;;;;5095261;27;19973;-78
2021/12/13 08:48:29;;;;;;;;;;;9.90;99.90;;;;;;5063533;27;19970;-79
2021/12/13 08:51:00;;;;;;;;;;;9.90;99.90;;;;;;5076777;27;20689;-78
2021/12/13 08:53:27;;;;;;;;;;;9.90;99.90;;;;;;5077390;27;20047;-78
2021/12/13 08:55:57;;;;;;;;;;;9.90;99.90;;;;;;5096669;27;19958;-78
2021/12/13 08:58:23;;;;;;;;;;;9.90;99.90;;;;;;5078576;27;19919;-78
2021/12/13 09:00:51;;;;;;;;;;;9.90;99.90;;;;;;5063636;27;19920;-78
2021/12/13 09:03:24;;;;;;;;;;;9.90;99.90;;;;;;5077762;27;19950;-78
2021/12/13 09:05:52;;;;;;;;;;;9.90;99.90;;;;;;5100235;27;19953;-77
2021/12/13 09:08:26;;;;;;;;;;;9.90;99.90;;;;;;5107488;28;19920;-78
2021/12/13 09:10:53;;;;;;;;;;;9.90;99.90;;;;;;5072980;27;19931;-77
2021/12/13 09:13:31;;;;;;;;;;;9.90;99.90;;;;;;5089704;27;20011;-78
2021/12/13 09:15:58;;;;;;;;;;;9.90;99.90;;;;;;5089383;27;19939;-77
2021/12/13 09:18:23;;;;;;;;;;;10.00;99.90;;;;;;5106801;27;19935;-77
2021/12/13 09:20:50;;;;;;;;;;;9.90;99.90;;;;;;5090704;27;19919;-78
2021/12/13 09:23:18;;;;;;;;;;;9.90;99.90;;;;;;5087940;27;19931;-77
2021/12/13 09:25:47;;;;;;;;;;;9.90;99.90;;;;;;5090401;27;19926;-78
2021/12/13 09:28:14;;;;;;;;;;;9.90;99.90;;;;;;5072472;28;19932;-77
2021/12/13 09:30:41;;;;;;;;;;;9.90;99.90;;;;;;5056488;27;19927;-77
2021/12/13 09:33:11;;;;;;;;;;;9.90;99.90;;;;;;5088189;28;19920;-77
2021/12/13 09:35:43;;;;;;;;;;;9.90;99.90;;;;;;5090050;28;20373;-78
2021/12/13 09:38:24;;;;;;;;;;;10.00;99.90;;;;;;5087281;28;19990;-77
2021/12/13 09:40:56;;;;;;;;;;;10.00;99.90;;;;;;5099307;28;19930;-78
2021/12/13 09:43:22;;;;;;;;;;;10.10;99.90;;;;;;5051363;28;19932;-78
2021/12/13 09:45:52;;;;;;;;;;;10.10;99.90;;;;;;5090309;28;19920;-77
2021/12/13 09:48:20;;;;;;;;;;;10.20;99.90;;;;;;5087976;28;19923;-78
2021/12/13 09:50:47;;;;;;;;;;;10.20;99.90;;;;;;5106890;27;19999;-77
2021/12/13 09:53:13;;;;;;;;;;;10.20;99.90;;;;;;5099650;28;19935;-77
2021/12/13 09:55:41;;;;;;;;;;;10.20;99.90;;;;;;5076723;27;19932;-78
2021/12/13 09:58:10;;;;;;;;;;;10.20;99.90;;;;;;5063255;28;19930;-77
2021/12/13 10:00:41;;;;;;;;;;;10.20;99.90;;;;;;5088565;28;19923;-76
2021/12/13 10:03:11;;;;;;;;;;;10.20;99.90;;;;;;5087255;28;19955;-76
2021/12/13 10:05:39;;;;;;;;;;;10.20;99.90;;;;;;5073972;28;19920;-78
2021/12/13 10:08:06;;;;;;;;;;;10.20;99.90;;;;;;5090918;27;19926;-78
2021/12/13 10:10:34;;;;;;;;;;;10.30;99.90;;;;;;5075899;27;19927;-77
2021/12/13 10:13:03;;;;;;;;;;;10.20;99.90;;;;;;5075377;28;19958;-78
2021/12/13 10:15:31;;;;;;;;;;;10.30;99.90;;;;;;5106318;28;19923;-77
2021/12/13 10:17:58;;;;;;;;;;;10.30;99.90;;;;;;5058901;28;19936;-78
2021/12/13 10:20:26;;;;;;;;;;;10.30;99.90;;;;;;5089610;28;19939;-78
2021/12/13 10:22:52;;;;;;;;;;;10.30;99.90;;;;;;5106309;28;19982;-77
2021/12/13 10:25:20;;;;;;;;;;;10.30;99.90;;;;;;5106455;27;19927;-78
2021/12/13 10:27:46;;;;;;;;;;;10.30;99.90;;;;;;5088950;27;19959;-76
2021/12/13 10:30:14;;;;;;;;;;;10.30;99.90;;;;;;5090155;28;19966;-78
2021/12/13 10:32:42;;;;;;;;;;;10.30;99.90;;;;;;5087888;28;20635;-77
2021/12/13 10:35:09;;;;;;;;;;;10.40;99.90;;;;;;5071920;28;19930;-77
2021/12/13 10:37:36;;;;;;;;;;;10.40;99.90;;;;;;5098448;28;19919;-77
2021/12/13 10:40:06;;;;;;;;;;;10.30;99.90;;;;;;5102489;28;19930;-77
2021/12/13 10:42:33;;;;;;;;;;;10.40;99.90;;;;;;5086603;28;19927;-78
2021/12/13 10:45:02;;;;;;;;;;;10.40;99.90;;;;;;5087740;27;19927;-77
2021/12/13 10:47:29;;;;;;;;;;;10.40;99.90;;;;;;5088479;28;19927;-77
2021/12/13 10:49:57;;;;;;;;;;;10.40;99.90;;;;;;5083625;28;20019;-78
2021/12/13 10:52:24;;;;;;;;;;;10.40;99.90;;;;;;5086716;28;19924;-77
2021/12/13 10:54:51;;;;;;;;;;;10.40;99.90;;;;;;5104942;28;19920;-78
2021/12/13 10:57:18;;;;;;;;;;;10.40;99.90;;;;;;5105079;28;19998;-77
2021/12/13 10:59:45;;;;;;;;;;;10.40;99.90;;;;;;5089447;28;19931;-77
2021/12/13 11:02:12;;;;;;;;;;;10.40;99.90;;;;;;5123714;28;19920;-77
2021/12/13 11:04:39;;;;;;;;;;;10.50;99.90;;;;;;5074957;28;19982;-76
2021/12/13 11:07:07;;;;;;;;;;;10.50;99.90;;;;;;5085659;28;20007;-77
2021/12/13 11:09:34;;;;;;;;;;;10.50;99.90;;;;;;5105155;28;19966;-78
2021/12/13 11:12:03;;;;;;;;;;;10.50;99.90;;;;;;5069009;28;19993;-78
2021/12/13 11:14:30;;;;;;;;;;;10.50;99.90;;;;;;5102508;28;19924;-77
2021/12/13 11:16:58;;;;;;;;;;;10.50;99.90;;;;;;5085741;28;19920;-77
2021/12/13 11:19:26;;;;;;;;;;;10.50;99.90;;;;;;5074736;28;20297;-78
2021/12/13 11:21:53;;;;;;;;;;;10.60;99.90;;;;;;5082899;28;20364;-78
2021/12/13 11:24:21;;;;;;;;;;;10.60;99.90;;;;;;5087315;28;19927;-78
2021/12/13 11:26:49;;;;;;;;;;;10.60;99.90;;;;;;5107309;28;19931;-77
2021/12/13 11:29:15;;;;;;;;;;;10.60;99.90;;;;;;5067501;28;19924;-78
2021/12/13 11:31:56;;;;;;;;;;;10.60;99.90;;;;;;5063639;28;19969;-77
2021/12/13 11:34:36;;;;;;;;;;;10.60;99.90;;;;;;5100245;28;20076;-78
2021/12/13 11:37:13;;;;;;;;;;;10.60;99.90;;;;;;5100964;28;20074;-77
2021/12/13 11:39:47;;;;;;;;;;;10.60;99.90;;;;;;5046360;28;19920;-78
2021/12/13 11:42:33;;;;;;;;;;;10.60;99.90;;;;;;5089475;28;20343;-77
2021/12/13 11:45:19;;;;;;;;;;;10.60;99.90;;;;;;5092699;27;19920;-77
2021/12/13 11:48:09;;;;;;;;;;;10.60;99.90;;;;;;5091720;28;19920;-77
2021/12/13 11:51:00;;;;;;;;;;;10.60;99.90;;;;;;5080300;28;19920;-78
2021/12/13 11:53:52;;;;;;;;;;;10.60;99.90;;;;;;5014817;28;20350;-77
2021/12/13 11:56:40;;;;;;;;;;;10.60;99.90;;;;;;5064206;28;19939;-78
2021/12/13 11:59:25;;;;;;;;;;;10.60;99.90;;;;;;5079838;27;20005;-78
2021/12/13 12:02:15;;;;;;;;;;;10.60;99.90;;;;;;5074379;27;20024;-77
2021/12/13 12:05:05;;;;;;;;;;;10.60;99.90;;;;;;5046298;27;19962;-77
2021/12/13 12:07:45;;;;;;;;;;;10.60;99.90;;;;;;5088141;28;19927;-76
2021/12/13 12:10:19;;;;;;;;;;;10.60;99.90;;;;;;5091804;27;19920;-78
2021/12/13 12:13:03;;;;;;;;;;;10.60;99.90;;;;;;5090769;27;19924;-78
2021/12/13 12:15:29;;;;;;;;;;;10.60;99.90;;;;;;5073941;27;20225;-78
2021/12/13 12:17:58;;;;;;;;;;;10.60;99.90;;;;;;5096855;27;20274;-78
2021/12/13 12:20:26;;;;;;;;;;;10.60;99.90;;;;;;5092207;27;20436;-78
2021/12/13 12:22:53;;;;;;;;;;;10.60;99.90;;;;;;5084978;28;19931;-78
2021/12/13 12:25:20;;;;;;;;;;;10.60;99.90;;;;;;5087296;27;19919;-77
2021/12/13 12:27:46;;;;;;;;;;;10.60;99.90;;;;;;5104829;27;19927;-78
2021/12/13 12:30:15;;;;;;;;;;;10.60;99.90;;;;;;5090870;27;19934;-78
2021/12/13 12:32:41;;;;;;;;;;;10.60;99.90;;;;;;5091373;28;19924;-78
2021/12/13 12:35:11;;;;;;;;;;;10.60;99.90;;;;;;5061243;27;19998;-78
2021/12/13 12:37:55;;;;;;;;;;;10.60;99.90;;;;;;5091737;28;20343;-78
2021/12/13 12:40:24;;;;;;;;;;;10.60;99.90;;;;;;5104035;27;19927;-78
2021/12/13 12:42:51;;;;;;;;;;;10.60;99.90;;;;;;5107148;27;20018;-78
2021/12/13 12:45:20;;;;;;;;;;;10.60;99.90;;;;;;5105675;27;20006;-78
2021/12/13 12:48:03;;;;;;;;;;;10.60;99.90;;;;;;5090926;27;20545;-77
2021/12/13 12:50:31;;;;;;;;;;;10.60;99.90;;;;;;5090545;28;19919;-78
2021/12/13 12:52:57;;;;;;;;;;;10.60;99.90;;;;;;5088570;28;19931;-78
2021/12/13 12:55:25;;;;;;;;;;;10.60;99.90;;;;;;5107561;28;20293;-78
2021/12/13 12:57:51;;;;;;;;;;;10.60;99.90;;;;;;5074604;28;19928;-79
2021/12/13 13:00:22;;;;;;;;;;;10.60;99.90;;;;;;5087763;28;19920;-77
2021/12/13 13:02:48;;;;;;;;;;;10.70;99.90;;;;;;5090697;28;20533;-78
2021/12/13 13:05:14;;;;;;;;;;;10.70;99.90;;;;;;5091528;28;20005;-78
2021/12/13 13:07:40;;;;;;;;;;;10.70;99.90;;;;;;5092246;27;20365;-78
2021/12/13 13:12:49;;;;;;;;;;;10.80;99.90;;;;;;5091437;28;19970;-78
2021/12/13 13:15:20;;;;;;;;;;;10.90;99.90;;;;;;5071972;27;19931;-77
2021/12/13 13:17:50;;;;;;;;;;;10.90;99.90;;;;;;5102271;27;20415;-78
2021/12/13 13:20:18;;;;;;;;;;;11.00;99.90;;;;;;5107166;27;20415;-78
2021/12/13 13:22:45;;;;;;;;;;;11.10;99.90;;;;;;5091564;27;19927;-78
2021/12/13 13:25:12;;;;;;;;;;;11.10;99.90;;;;;;5055541;27;19970;-78
2021/12/13 13:27:38;;;;;;;;;;;11.10;99.90;;;;;;5100819;27;19920;-78
2021/12/13 13:30:06;;;;;;;;;;;11.10;99.90;;;;;;5106333;28;20408;-78
2021/12/13 13:32:36;;;;;;;;;;;11.10;99.90;;;;;;5104122;28;21506;-78
2021/12/13 13:35:04;;;;;;;;;;;11.10;99.90;;;;;;5089894;27;19930;-78
2021/12/13 13:37:31;;;;;;;;;;;11.10;99.90;;;;;;5107742;27;20027;-77
2021/12/13 13:39:57;;;;;;;;;;;11.10;99.90;;;;;;5090286;27;20025;-78
2021/12/13 13:42:25;;;;;;;;;;;11.20;99.90;;;;;;5086252;27;20305;-78
2021/12/13 13:44:52;;;;;;;;;;;11.20;99.90;;;;;;5088346;27;19924;-78
2021/12/13 13:47:19;;;;;;;;;;;11.30;99.90;;;;;;5104900;27;20010;-78
2021/12/13 13:49:47;;;;;;;;;;;11.20;99.90;;;;;;5087686;27;21187;-78
2021/12/13 13:52:17;;;;;;;;;;;11.20;99.90;;;;;;5085921;27;20338;-78
2021/12/13 13:54:43;;;;;;;;;;;11.20;99.90;;;;;;5089128;27;19931;-78
2021/12/13 13:57:15;;;;;;;;;;;11.10;99.90;;;;;;5072594;28;20546;-76
2021/12/13 13:59:41;;;;;;;;;;;11.10;99.90;;;;;;5054381;27;19926;-78
2021/12/13 14:02:07;;;;;;;;;;;11.10;99.90;;;;;;5087404;28;20025;-79
2021/12/13 14:04:34;;;;;;;;;;;11.00;99.90;;;;;;5103274;28;19923;-77
2021/12/13 14:07:02;;;;;;;;;;;11.00;99.90;;;;;;5101335;28;19975;-78
2021/12/13 14:09:34;;;;;;;;;;;10.90;99.90;;;;;;5085917;27;20675;-79
2021/12/13 14:12:01;;;;;;;;;;;10.90;99.90;;;;;;5065778;27;19966;-78
2021/12/13 14:14:39;;;;;;;;;;;10.90;99.90;;;;;;5090648;27;19923;-78
2021/12/13 14:17:05;;;;;;;;;;;10.90;99.90;;;;;;5084970;27;19929;-78
2021/12/13 14:19:33;;;;;;;;;;;10.80;99.90;;;;;;5071973;28;20072;-79
2021/12/13 14:21:59;;;;;;;;;;;10.80;99.90;;;;;;5089833;27;19924;-78
2021/12/13 14:24:35;;;;;;;;;;;10.80;99.90;;;;;;5072618;28;19930;-78
2021/12/13 14:27:12;;;;;;;;;;;10.80;99.90;;;;;;5086088;28;19928;-78
2021/12/13 14:29:37;;;;;;;;;;;10.70;99.90;;;;;;5103985;27;19927;-78
2021/12/13 14:32:07;;;;;;;;;;;10.60;99.90;;;;;;5073677;28;20293;-78
2021/12/13 14:34:35;;;;;;;;;;;10.60;99.90;;;;;;5086844;28;19934;-78
2021/12/13 14:37:01;;;;;;;;;;;10.60;99.90;;;;;;5085991;27;19959;-78
2021/12/13 14:39:28;;;;;;;;;;;10.60;99.90;;;;;;5101112;28;19967;-78